createdAt,value
2024-01-06T00:03:56.342Z,0.45
2024-01-06T00:09:18.151Z,0.43
2024-01-06T00:14:40.016Z,0.53
2024-01-06T00:20:01.997Z,0.46
2024-01-06T00:25:23.780Z,0.58
2024-01-06T00:30:46.555Z,0.50
2024-01-06T00:36:08.645Z,0.56
2024-01-06T00:41:30.512Z,0.62
2024-01-06T00:46:52.234Z,0.68
2024-01-06T00:52:14.012Z,0.58
2024-01-06T00:57:35.820Z,0.55
2024-01-06T01:02:57.679Z,0.40
2024-01-06T01:08:19.517Z,0.40
2024-01-06T01:13:41.358Z,0.34
2024-01-06T01:19:03.330Z,0.18
2024-01-06T01:24:25.197Z,0.11
2024-01-06T01:29:47.053Z,0.21
2024-01-06T01:35:09.076Z,0.15
2024-01-06T01:40:30.828Z,0.18
2024-01-06T01:45:55.180Z,0.06
2024-01-06T01:51:18.444Z,0.15
2024-01-06T01:56:40.947Z,0.22
2024-01-06T02:02:03.448Z,0.10
2024-01-06T02:07:25.281Z,0.17
2024-01-06T02:12:47.092Z,0.18
2024-01-06T02:18:09.114Z,0.09
2024-01-06T02:23:31.220Z,0.07
2024-01-06T02:28:52.979Z,0.19
2024-01-06T02:34:14.975Z,0.13
2024-01-06T02:39:36.776Z,0.12
2024-01-06T02:44:58.545Z,0.19
2024-01-06T02:50:20.328Z,0.29
2024-01-06T02:55:42.081Z,0.31
2024-01-06T03:01:04.202Z,0.35
2024-01-06T03:06:26.319Z,0.33
2024-01-06T03:11:48.159Z,0.42
2024-01-06T03:17:09.982Z,0.48
2024-01-06T03:22:31.954Z,0.15
2024-01-06T03:27:53.775Z,-0.21
2024-01-06T03:33:16.105Z,0.20
2024-01-06T03:38:37.929Z,-0.32
2024-01-06T03:44:00.137Z,-0.26
2024-01-06T03:49:22.113Z,-0.01
2024-01-06T03:54:43.957Z,0.28
2024-01-06T04:00:06.391Z,0.32
2024-01-06T04:05:28.207Z,0.34
2024-01-06T04:10:50.005Z,0.48
2024-01-06T04:16:11.781Z,0.54
2024-01-06T04:21:33.549Z,0.54
2024-01-06T04:26:55.371Z,0.54
2024-01-06T04:32:17.138Z,0.53
2024-01-06T04:37:38.952Z,0.38
2024-01-06T04:43:00.786Z,0.51
2024-01-06T04:48:23.103Z,0.54
2024-01-06T04:53:44.861Z,0.58
2024-01-06T04:59:06.896Z,0.53
2024-01-06T05:04:28.710Z,0.53
2024-01-06T05:09:50.589Z,0.47
2024-01-06T05:15:13.213Z,0.40
2024-01-06T05:20:34.938Z,0.57
2024-01-06T05:25:56.713Z,0.41
2024-01-06T05:31:18.577Z,0.42
2024-01-06T05:36:40.483Z,0.42
2024-01-06T05:42:02.290Z,0.46
2024-01-06T05:47:24.045Z,0.19
2024-01-06T05:52:45.887Z,0.38
2024-01-06T05:58:07.645Z,0.47
2024-01-06T06:03:29.486Z,0.40
2024-01-06T06:08:51.301Z,0.10
2024-01-06T06:14:13.134Z,0.34
2024-01-06T06:19:35.000Z,0.45
2024-01-06T06:25:00.830Z,0.25
2024-01-06T06:30:22.684Z,0.46
2024-01-06T06:35:44.660Z,0.38
2024-01-06T06:41:06.489Z,0.40
2024-01-06T06:46:28.235Z,0.31
2024-01-06T06:51:50.156Z,0.28
2024-01-06T06:57:12.028Z,0.31
2024-01-06T07:02:34.568Z,0.38
2024-01-06T07:07:56.384Z,0.33
2024-01-06T07:13:18.152Z,0.23
2024-01-06T07:18:39.946Z,0.44
2024-01-06T07:24:01.760Z,0.36
2024-01-06T07:29:23.638Z,0.37
2024-01-06T07:34:45.458Z,0.11
2024-01-06T07:40:07.539Z,0.40
2024-01-06T07:45:29.333Z,0.62
2024-01-06T07:50:51.355Z,0.67
2024-01-06T07:56:13.258Z,0.65
2024-01-06T08:01:35.139Z,0.67
2024-01-06T08:06:57.060Z,0.88
2024-01-06T08:12:19.281Z,0.98
2024-01-06T08:17:41.127Z,0.87
2024-01-06T08:23:02.967Z,0.93
2024-01-06T08:28:24.695Z,0.71
2024-01-06T08:33:46.626Z,1.09
2024-01-06T08:39:08.503Z,0.96
2024-01-06T08:44:30.277Z,1.03
2024-01-06T08:49:52.145Z,1.17
2024-01-06T08:55:14.685Z,1.07
2024-01-06T09:00:37.532Z,0.90
2024-01-06T09:06:01.245Z,0.80
2024-01-06T09:11:22.977Z,0.92
2024-01-06T09:16:44.704Z,0.98
2024-01-06T09:22:06.480Z,1.00
2024-01-06T09:27:28.291Z,1.10
2024-01-06T09:32:50.125Z,0.94
2024-01-06T09:38:11.942Z,1.06
2024-01-06T09:43:33.786Z,0.98
2024-01-06T09:48:56.568Z,0.99
2024-01-06T09:54:24.497Z,1.03
2024-01-06T09:59:46.257Z,1.00
2024-01-06T10:05:08.714Z,1.02
2024-01-06T10:10:30.675Z,1.27
2024-01-06T10:15:52.599Z,1.13
2024-01-06T10:21:14.378Z,1.17
2024-01-06T10:26:36.494Z,1.14
2024-01-06T10:31:59.046Z,1.01
2024-01-06T10:37:24.714Z,1.19
2024-01-06T10:42:46.903Z,1.11
2024-01-06T10:48:09.252Z,1.21
2024-01-06T10:53:31.892Z,1.22
2024-01-06T10:58:54.898Z,1.45
2024-01-06T11:04:17.756Z,1.55
2024-01-06T11:09:46.027Z,1.62
2024-01-06T11:15:08.086Z,1.48
2024-01-06T11:20:29.830Z,1.50
2024-01-06T11:25:54.050Z,1.49
2024-01-06T11:31:15.994Z,1.63
2024-01-06T11:36:37.830Z,1.68
2024-01-06T11:41:59.618Z,1.73
2024-01-06T11:47:21.486Z,1.64
2024-01-06T11:52:43.403Z,1.47
2024-01-06T11:58:05.603Z,1.37
2024-01-06T12:03:27.645Z,1.54
2024-01-06T12:08:49.448Z,1.66
2024-01-06T12:14:11.192Z,1.49
2024-01-06T12:19:37.400Z,1.61
2024-01-06T12:25:04.040Z,1.51
2024-01-06T12:30:25.996Z,1.57
2024-01-06T12:35:48.019Z,1.73
2024-01-06T12:41:09.799Z,1.72
2024-01-06T12:46:31.654Z,1.69
2024-01-06T12:51:53.560Z,1.55
2024-01-06T12:57:15.492Z,1.56
2024-01-06T13:02:37.448Z,1.51
2024-01-06T13:07:59.161Z,1.46
2024-01-06T13:13:20.913Z,1.64
2024-01-06T13:18:42.810Z,1.48
2024-01-06T13:24:04.919Z,1.42
2024-01-06T13:29:26.619Z,1.24
2024-01-06T13:34:48.684Z,1.42
2024-01-06T13:40:11.787Z,1.41
2024-01-06T13:45:33.652Z,1.31
2024-01-06T13:50:55.611Z,1.24
2024-01-06T13:56:17.374Z,1.20
2024-01-06T14:01:39.641Z,1.14
2024-01-06T14:07:04.936Z,1.13
2024-01-06T14:12:27.047Z,1.02
2024-01-06T14:17:49.005Z,1.00
2024-01-06T14:23:10.778Z,1.20
2024-01-06T14:28:32.648Z,1.05
2024-01-06T14:33:56.075Z,0.92
2024-01-06T14:39:20.201Z,0.92
2024-01-06T14:44:42.201Z,0.81
2024-01-06T14:50:04.423Z,0.68
2024-01-06T14:55:26.199Z,0.73
2024-01-06T15:00:48.053Z,0.73
2024-01-06T15:06:10.855Z,0.61
2024-01-06T15:11:32.621Z,0.77
2024-01-06T15:16:54.347Z,0.76
2024-01-06T15:22:16.254Z,0.72
2024-01-06T15:27:38.051Z,0.57
2024-01-06T15:32:59.886Z,0.58
2024-01-06T15:38:21.712Z,0.55
2024-01-06T15:43:43.524Z,0.48
2024-01-06T15:49:05.712Z,0.47
2024-01-06T15:54:27.868Z,0.21
2024-01-06T15:59:49.594Z,0.21
2024-01-06T16:05:11.554Z,0.31
2024-01-06T16:10:33.444Z,0.31
2024-01-06T16:15:55.563Z,0.38
2024-01-06T16:21:22.660Z,0.41
2024-01-06T16:26:46.138Z,0.37
2024-01-06T16:32:08.377Z,0.31
2024-01-06T16:37:30.332Z,0.28
2024-01-06T16:42:53.273Z,0.24
2024-01-06T16:48:15.176Z,0.24
2024-01-06T16:53:37.023Z,0.09
2024-01-06T16:58:58.880Z,0.13
2024-01-06T17:04:21.124Z,0.16
2024-01-06T17:09:43.240Z,0.14
2024-01-06T17:15:05.347Z,0.17
2024-01-06T17:20:27.248Z,0.11
2024-01-06T17:25:49.000Z,0.03
2024-01-06T17:31:10.859Z,0.16
2024-01-06T17:36:32.727Z,0.07
2024-01-06T17:41:59.742Z,0.10
2024-01-06T17:47:22.383Z,0.16
2024-01-06T17:52:44.151Z,0.09
2024-01-06T17:58:05.952Z,0.10
2024-01-06T18:03:27.849Z,-0.05
2024-01-06T18:08:49.650Z,0.07
2024-01-06T18:14:11.400Z,0.07
2024-01-06T18:19:33.264Z,-0.02
2024-01-06T18:24:55.095Z,-0.01
2024-01-06T18:30:16.924Z,-0.17
2024-01-06T18:35:38.801Z,-0.10
2024-01-06T18:41:00.601Z,-0.07
2024-01-06T18:46:22.400Z,-0.16
2024-01-06T18:51:44.260Z,-0.11
2024-01-06T18:57:06.106Z,-0.09
2024-01-06T19:02:27.858Z,-0.13
2024-01-06T19:07:49.662Z,-0.14
2024-01-06T19:13:11.483Z,-0.19
2024-01-06T19:18:33.374Z,-0.11
2024-01-06T19:23:55.156Z,-0.13
2024-01-06T19:29:16.913Z,-0.19
2024-01-06T19:34:39.164Z,-0.22
2024-01-06T19:40:01.360Z,-0.42
2024-01-06T19:45:23.125Z,-0.38
2024-01-06T19:50:44.921Z,-0.44
2024-01-06T19:56:13.341Z,-0.54
2024-01-06T20:01:35.272Z,-0.71
2024-01-06T20:06:57.152Z,-0.64
2024-01-06T20:12:19.023Z,-0.69
2024-01-06T20:17:40.827Z,-0.70
2024-01-06T20:23:02.585Z,-0.88
2024-01-06T20:28:24.364Z,-0.80
2024-01-06T20:33:46.266Z,-0.91
2024-01-06T20:39:08.443Z,-0.93
2024-01-06T20:44:30.204Z,-1.00
2024-01-06T20:49:51.974Z,-1.12
2024-01-06T20:55:13.813Z,-1.14
2024-01-06T21:00:35.666Z,-1.48
2024-01-06T21:05:57.444Z,-1.23
2024-01-06T21:11:19.158Z,-1.27
2024-01-06T21:16:41.531Z,-1.28
2024-01-06T21:22:03.473Z,-1.30
2024-01-06T21:27:25.267Z,-1.40
2024-01-06T21:32:47.306Z,-1.43
2024-01-06T21:38:09.183Z,-1.37
2024-01-06T21:43:30.928Z,-1.48
2024-01-06T21:48:52.735Z,-1.56
2024-01-06T21:54:14.572Z,-1.64
2024-01-06T21:59:37.183Z,-1.79
2024-01-06T22:04:58.944Z,-1.92
2024-01-06T22:10:20.690Z,-1.94
2024-01-06T22:15:42.502Z,-2.17
2024-01-06T22:21:04.603Z,-2.38
2024-01-06T22:26:26.347Z,-2.39
2024-01-06T22:31:48.197Z,-2.35
2024-01-06T22:37:10.099Z,-2.38
2024-01-06T22:42:32.098Z,-2.50
2024-01-06T22:47:53.999Z,-2.47
2024-01-06T22:53:15.740Z,-2.55
2024-01-06T22:58:37.900Z,-2.63
2024-01-06T23:03:59.851Z,-2.76
2024-01-06T23:09:21.678Z,-2.83
2024-01-06T23:14:43.459Z,-2.96
2024-01-06T23:20:05.679Z,-3.01
2024-01-06T23:25:27.521Z,-3.12
2024-01-06T23:30:49.442Z,-3.21
2024-01-06T23:36:11.240Z,-3.44
2024-01-06T23:41:32.948Z,-3.43
2024-01-06T23:46:54.936Z,-3.44
2024-01-06T23:52:16.700Z,-3.57
2024-01-06T23:57:38.489Z,-3.59
